Terminal Aerodrome Forecast
Issued by NWS Grand Forks, ND

Home | Current Version | Previous Version | Graphics & Text | Print | Product List | Glossary On
Versions: 1 2 3 4 5 6 7 8 9 10 11 12 13 14 15 16 17 18 19
000
FTUS43 KFGF 281120
TAFGFK
TAF
KGFK 281120Z 2812/2912 VRB06KT P6SM OVC025
      TEMPO 2813/2816 BKN040
     FM281600 03006KT P6SM BKN040
     FM281800 03007KT P6SM VCSH BKN050
     FM290200 03006KT P6SM BKN070=

USA.gov is the U.S. government's official web portal to all federal, state and local government web resources and services.